sensor_id;sensor_type;location;lat;lon;timestamp;P1;durP1;ratioP1;P2;durP2;ratioP2
64242;SDS011;50573;51.512;5.386;2022-10-16T00:06:31;10.88;;;4.70;;
64242;SDS011;50573;51.512;5.386;2022-10-16T00:16:34;15.90;;;5.10;;
64242;SDS011;50573;51.512;5.386;2022-10-16T00:26:39;9.63;;;4.70;;
64242;SDS011;50573;51.512;5.386;2022-10-16T00:46:46;8.75;;;4.30;;
64242;SDS011;50573;51.512;5.386;2022-10-16T00:56:50;10.47;;;4.20;;
64242;SDS011;50573;51.512;5.386;2022-10-16T01:06:56;12.77;;;4.85;;
64242;SDS011;50573;51.512;5.386;2022-10-16T01:17:14;8.18;;;3.85;;
64242;SDS011;50573;51.512;5.386;2022-10-16T01:27:22;8.32;;;3.92;;
64242;SDS011;50573;51.512;5.386;2022-10-16T01:37:30;13.00;;;4.07;;
64242;SDS011;50573;51.512;5.386;2022-10-16T01:47:39;7.72;;;3.25;;
64242;SDS011;50573;51.512;5.386;2022-10-16T01:57:44;8.73;;;3.00;;
64242;SDS011;50573;51.512;5.386;2022-10-16T02:07:51;9.73;;;3.25;;
64242;SDS011;50573;51.512;5.386;2022-10-16T02:17:54;7.00;;;2.60;;
64242;SDS011;50573;51.512;5.386;2022-10-16T02:28:00;5.95;;;3.13;;
64242;SDS011;50573;51.512;5.386;2022-10-16T02:38:06;9.65;;;2.75;;
64242;SDS011;50573;51.512;5.386;2022-10-16T02:48:12;5.13;;;2.57;;
64242;SDS011;50573;51.512;5.386;2022-10-16T03:08:20;5.60;;;2.75;;
64242;SDS011;50573;51.512;5.386;2022-10-16T03:18:25;4.43;;;2.47;;
64242;SDS011;50573;51.512;5.386;2022-10-16T03:28:29;4.05;;;2.33;;
64242;SDS011;50573;51.512;5.386;2022-10-16T03:38:32;5.67;;;1.97;;
64242;SDS011;50573;51.512;5.386;2022-10-16T03:48:36;2.38;;;1.70;;
64242;SDS011;50573;51.512;5.386;2022-10-16T03:58:41;5.03;;;2.15;;
64242;SDS011;50573;51.512;5.386;2022-10-16T04:08:45;5.93;;;2.05;;
64242;SDS011;50573;51.512;5.386;2022-10-16T04:18:48;3.13;;;2.50;;
64242;SDS011;50573;51.512;5.386;2022-10-16T04:28:53;4.78;;;2.53;;
64242;SDS011;50573;51.512;5.386;2022-10-16T04:38:56;8.10;;;3.00;;
64242;SDS011;50573;51.512;5.386;2022-10-16T04:49:00;5.47;;;3.00;;
64242;SDS011;50573;51.512;5.386;2022-10-16T04:59:03;5.67;;;3.00;;
64242;SDS011;50573;51.512;5.386;2022-10-16T05:09:07;6.50;;;3.03;;
64242;SDS011;50573;51.512;5.386;2022-10-16T05:19:11;7.38;;;3.33;;
64242;SDS011;50573;51.512;5.386;2022-10-16T05:29:31;5.93;;;2.88;;
64242;SDS011;50573;51.512;5.386;2022-10-16T05:39:34;8.90;;;3.13;;
64242;SDS011;50573;51.512;5.386;2022-10-16T05:49:39;7.57;;;3.17;;
64242;SDS011;50573;51.512;5.386;2022-10-16T05:59:42;4.63;;;2.50;;
64242;SDS011;50573;51.512;5.386;2022-10-16T06:09:48;8.55;;;3.72;;
64242;SDS011;50573;51.512;5.386;2022-10-16T06:19:52;8.02;;;3.25;;
64242;SDS011;50573;51.512;5.386;2022-10-16T06:29:56;11.15;;;3.40;;
64242;SDS011;50573;51.512;5.386;2022-10-16T06:39:59;15.13;;;3.70;;
64242;SDS011;50573;51.512;5.386;2022-10-16T06:50:07;9.45;;;3.22;;
64242;SDS011;50573;51.512;5.386;2022-10-16T07:10:15;7.38;;;3.20;;
64242;SDS011;50573;51.512;5.386;2022-10-16T07:20:18;7.50;;;3.13;;
64242;SDS011;50573;51.512;5.386;2022-10-16T07:30:23;9.10;;;2.95;;
64242;SDS011;50573;51.512;5.386;2022-10-16T07:40:26;6.43;;;2.40;;
64242;SDS011;50573;51.512;5.386;2022-10-16T07:50:31;5.78;;;2.50;;
64242;SDS011;50573;51.512;5.386;2022-10-16T08:00:35;12.13;;;3.23;;
64242;SDS011;50573;51.512;5.386;2022-10-16T08:10:40;8.27;;;2.92;;
64242;SDS011;50573;51.512;5.386;2022-10-16T08:20:43;8.60;;;2.97;;
64242;SDS011;50573;51.512;5.386;2022-10-16T08:30:47;4.53;;;2.42;;
64242;SDS011;50573;51.512;5.386;2022-10-16T08:40:50;6.07;;;2.13;;
64242;SDS011;50573;51.512;5.386;2022-10-16T08:51:00;4.07;;;1.92;;
64242;SDS011;50573;51.512;5.386;2022-10-16T09:01:11;8.05;;;1.90;;
64242;SDS011;50573;51.512;5.386;2022-10-16T09:11:19;5.40;;;1.50;;
64242;SDS011;50573;51.512;5.386;2022-10-16T09:21:34;8.35;;;2.20;;
64242;SDS011;50573;51.512;5.386;2022-10-16T09:31:41;10.82;;;2.17;;
64242;SDS011;50573;51.512;5.386;2022-10-16T09:41:45;12.05;;;2.03;;
64242;SDS011;50573;51.512;5.386;2022-10-16T09:51:50;9.90;;;2.30;;
64242;SDS011;50573;51.512;5.386;2022-10-16T10:01:55;18.48;;;3.10;;
64242;SDS011;50573;51.512;5.386;2022-10-16T10:12:02;9.80;;;2.25;;
64242;SDS011;50573;51.512;5.386;2022-10-16T10:22:17;13.52;;;2.80;;
64242;SDS011;50573;51.512;5.386;2022-10-16T10:32:31;10.00;;;2.55;;
64242;SDS011;50573;51.512;5.386;2022-10-16T10:42:44;10.25;;;2.35;;
64242;SDS011;50573;51.512;5.386;2022-10-16T10:53:02;12.38;;;2.33;;
64242;SDS011;50573;51.512;5.386;2022-10-16T11:03:13;14.43;;;2.50;;
64242;SDS011;50573;51.512;5.386;2022-10-16T11:13:30;15.15;;;2.85;;
64242;SDS011;50573;51.512;5.386;2022-10-16T11:23:38;13.52;;;2.75;;
64242;SDS011;50573;51.512;5.386;2022-10-16T11:33:48;13.32;;;3.00;;
64242;SDS011;50573;51.512;5.386;2022-10-16T11:43:59;15.23;;;2.88;;
64242;SDS011;50573;51.512;5.386;2022-10-16T11:54:16;12.90;;;2.53;;
64242;SDS011;50573;51.512;5.386;2022-10-16T12:04:24;10.68;;;2.13;;
64242;SDS011;50573;51.512;5.386;2022-10-16T12:14:37;9.15;;;2.42;;
64242;SDS011;50573;51.512;5.386;2022-10-16T12:25:01;11.52;;;1.98;;
64242;SDS011;50573;51.512;5.386;2022-10-16T12:35:06;8.88;;;2.33;;
64242;SDS011;50573;51.512;5.386;2022-10-16T12:45:26;11.23;;;2.25;;
64242;SDS011;50573;51.512;5.386;2022-10-16T12:55:42;9.32;;;1.75;;
64242;SDS011;50573;51.512;5.386;2022-10-16T13:05:57;7.45;;;1.83;;
64242;SDS011;50573;51.512;5.386;2022-10-16T13:16:14;4.97;;;1.45;;
64242;SDS011;50573;51.512;5.386;2022-10-16T13:26:28;9.32;;;1.70;;
64242;SDS011;50573;51.512;5.386;2022-10-16T13:36:44;7.88;;;1.73;;
64242;SDS011;50573;51.512;5.386;2022-10-16T13:46:57;9.13;;;2.15;;
64242;SDS011;50573;51.512;5.386;2022-10-16T13:57:05;10.45;;;2.10;;
64242;SDS011;50573;51.512;5.386;2022-10-16T14:07:28;14.52;;;2.72;;
64242;SDS011;50573;51.512;5.386;2022-10-16T14:17:34;6.72;;;1.90;;
64242;SDS011;50573;51.512;5.386;2022-10-16T14:27:38;9.73;;;2.00;;
64242;SDS011;50573;51.512;5.386;2022-10-16T14:37:43;9.30;;;1.58;;
64242;SDS011;50573;51.512;5.386;2022-10-16T14:47:48;17.77;;;2.35;;
64242;SDS011;50573;51.512;5.386;2022-10-16T14:57:54;6.85;;;1.95;;
64242;SDS011;50573;51.512;5.386;2022-10-16T15:08:01;7.40;;;2.08;;
64242;SDS011;50573;51.512;5.386;2022-10-16T15:18:07;7.75;;;1.40;;
64242;SDS011;50573;51.512;5.386;2022-10-16T15:28:11;12.65;;;4.28;;
64242;SDS011;50573;51.512;5.386;2022-10-16T15:58:24;6.70;;;2.63;;
64242;SDS011;50573;51.512;5.386;2022-10-16T16:18:31;4.90;;;1.63;;
64242;SDS011;50573;51.512;5.386;2022-10-16T16:38:39;6.82;;;2.22;;
64242;SDS011;50573;51.512;5.386;2022-10-16T16:48:42;9.50;;;2.60;;
64242;SDS011;50573;51.512;5.386;2022-10-16T16:58:46;8.52;;;2.47;;
64242;SDS011;50573;51.512;5.386;2022-10-16T17:08:50;10.15;;;2.65;;
64242;SDS011;50573;51.512;5.386;2022-10-16T17:18:55;15.25;;;5.65;;
64242;SDS011;50573;51.512;5.386;2022-10-16T17:28:59;13.40;;;6.20;;
64242;SDS011;50573;51.512;5.386;2022-10-16T17:39:05;12.07;;;6.47;;
64242;SDS011;50573;51.512;5.386;2022-10-16T17:49:10;17.67;;;6.50;;
64242;SDS011;50573;51.512;5.386;2022-10-16T17:59:14;13.32;;;5.45;;
64242;SDS011;50573;51.512;5.386;2022-10-16T18:19:23;16.20;;;8.32;;
64242;SDS011;50573;51.512;5.386;2022-10-16T18:29:26;15.10;;;5.07;;
64242;SDS011;50573;51.512;5.386;2022-10-16T18:39:31;17.20;;;5.80;;
64242;SDS011;50573;51.512;5.386;2022-10-16T18:49:34;12.63;;;6.03;;
64242;SDS011;50573;51.512;5.386;2022-10-16T18:59:39;13.77;;;7.43;;
64242;SDS011;50573;51.512;5.386;2022-10-16T19:09:42;14.38;;;6.90;;
64242;SDS011;50573;51.512;5.386;2022-10-16T19:19:46;12.32;;;6.20;;
64242;SDS011;50573;51.512;5.386;2022-10-16T19:29:49;14.20;;;7.55;;
64242;SDS011;50573;51.512;5.386;2022-10-16T19:39:53;14.07;;;7.80;;
64242;SDS011;50573;51.512;5.386;2022-10-16T19:49:56;19.25;;;10.57;;
64242;SDS011;50573;51.512;5.386;2022-10-16T20:00:01;12.50;;;8.10;;
64242;SDS011;50573;51.512;5.386;2022-10-16T20:10:07;17.83;;;10.40;;
64242;SDS011;50573;51.512;5.386;2022-10-16T20:20:12;13.37;;;10.13;;
64242;SDS011;50573;51.512;5.386;2022-10-16T20:30:15;19.73;;;14.00;;
64242;SDS011;50573;51.512;5.386;2022-10-16T20:40:20;15.27;;;10.77;;
64242;SDS011;50573;51.512;5.386;2022-10-16T20:50:23;19.83;;;9.80;;
64242;SDS011;50573;51.512;5.386;2022-10-16T21:00:31;16.63;;;10.65;;
64242;SDS011;50573;51.512;5.386;2022-10-16T21:10:34;16.23;;;10.48;;
64242;SDS011;50573;51.512;5.386;2022-10-16T21:20:41;16.35;;;12.70;;
64242;SDS011;50573;51.512;5.386;2022-10-16T21:30:45;16.02;;;11.98;;
64242;SDS011;50573;51.512;5.386;2022-10-16T21:40:49;24.48;;;14.48;;
64242;SDS011;50573;51.512;5.386;2022-10-16T21:50:52;20.03;;;14.00;;
64242;SDS011;50573;51.512;5.386;2022-10-16T22:00:56;24.58;;;15.82;;
64242;SDS011;50573;51.512;5.386;2022-10-16T22:11:03;24.07;;;16.00;;
64242;SDS011;50573;51.512;5.386;2022-10-16T22:21:08;26.63;;;16.67;;
64242;SDS011;50573;51.512;5.386;2022-10-16T22:31:12;22.27;;;13.80;;
64242;SDS011;50573;51.512;5.386;2022-10-16T22:51:20;23.33;;;15.87;;
64242;SDS011;50573;51.512;5.386;2022-10-16T23:01:26;21.75;;;15.85;;
64242;SDS011;50573;51.512;5.386;2022-10-16T23:11:31;25.10;;;15.97;;
64242;SDS011;50573;51.512;5.386;2022-10-16T23:21:36;22.43;;;15.47;;
64242;SDS011;50573;51.512;5.386;2022-10-16T23:31:39;16.83;;;10.97;;
64242;SDS011;50573;51.512;5.386;2022-10-16T23:41:43;22.17;;;15.23;;
64242;SDS011;50573;51.512;5.386;2022-10-16T23:51:46;22.90;;;15.13;;
